createdAt,value
2019-02-23T00:01:47.837Z,100.00
2019-02-23T00:04:17.323Z,100.00
2019-02-23T00:06:46.832Z,100.00
2019-02-23T00:09:16.404Z,100.00
2019-02-23T00:11:45.893Z,100.00
2019-02-23T00:14:15.390Z,100.00
2019-02-23T00:17:23.382Z,100.00
2019-02-23T00:19:52.885Z,100.00
2019-02-23T00:22:22.395Z,100.00
2019-02-23T00:25:11.225Z,100.00
2019-02-23T00:27:40.732Z,100.00
2019-02-23T00:30:10.387Z,100.00
2019-02-23T00:32:39.895Z,100.00
2019-02-23T00:35:09.404Z,100.00
2019-02-23T00:37:38.914Z,100.00
2019-02-23T00:40:08.889Z,100.00
2019-02-23T00:42:38.397Z,100.00
2019-02-23T00:45:27.254Z,100.00
2019-02-23T00:47:56.747Z,100.00
2019-02-23T00:50:26.239Z,100.00
2019-02-23T00:52:55.750Z,100.00
2019-02-23T00:55:44.601Z,100.00
2019-02-23T00:58:26.927Z,100.00
2019-02-23T01:00:57.100Z,100.00
2019-02-23T01:03:26.660Z,100.00
2019-02-23T01:05:56.164Z,100.00
2019-02-23T01:08:25.654Z,100.00
2019-02-23T01:11:14.523Z,100.00
2019-02-23T01:13:44.013Z,100.00
2019-02-23T01:16:13.537Z,100.00
2019-02-23T01:18:43.098Z,100.00
2019-02-23T01:21:13.255Z,100.00
2019-02-23T01:23:42.762Z,100.00
2019-02-23T01:26:12.294Z,100.00
2019-02-23T01:28:41.779Z,100.00
2019-02-23T01:31:11.298Z,100.00
2019-02-23T01:33:41.795Z,100.00
2019-02-23T01:36:30.650Z,100.00
2019-02-23T01:39:00.167Z,100.00
2019-02-23T01:41:49.013Z,100.00
2019-02-23T01:44:18.506Z,100.00
2019-02-23T01:46:49.259Z,100.00
2019-02-23T01:49:18.760Z,100.00
2019-02-23T01:51:48.261Z,100.00
2019-02-23T01:54:17.775Z,100.00
2019-02-23T01:57:06.648Z,100.00
2019-02-23T01:59:36.137Z,100.00
2019-02-23T02:02:05.791Z,100.00
2019-02-23T02:04:35.282Z,100.00
2019-02-23T02:07:06.088Z,100.00
2019-02-23T02:09:35.645Z,100.00
2019-02-23T02:12:06.715Z,100.00
2019-02-23T02:14:55.529Z,100.00
2019-02-23T02:17:25.039Z,100.00
2019-02-23T02:20:11.147Z,100.00
2019-02-23T02:22:37.769Z,100.00
2019-02-23T02:25:09.060Z,100.00
2019-02-23T02:27:38.566Z,100.00
2019-02-23T02:30:11.177Z,100.00
2019-02-23T02:32:40.680Z,100.00
2019-02-23T02:35:11.544Z,100.00
2019-02-23T02:37:41.121Z,100.00
2019-02-23T02:40:10.971Z,100.00
2019-02-23T02:42:40.488Z,100.00
2019-02-23T02:45:29.395Z,100.00
2019-02-23T02:47:58.906Z,100.00
2019-02-23T02:50:28.401Z,100.00
2019-02-23T02:52:57.909Z,100.00
2019-02-23T02:55:27.434Z,100.00
2019-02-23T02:57:56.938Z,100.00
2019-02-23T03:00:26.452Z,100.00
2019-02-23T03:02:55.983Z,100.00
2019-02-23T03:05:25.469Z,100.00
2019-02-23T03:07:54.988Z,100.00
2019-02-23T03:10:24.479Z,100.00
2019-02-23T03:12:54.001Z,100.00
2019-02-23T03:15:23.498Z,100.00
2019-02-23T03:17:53.010Z,100.00
2019-02-23T03:20:22.510Z,100.00
2019-02-23T03:22:52.026Z,100.00
2019-02-23T03:25:21.534Z,100.00
2019-02-23T03:27:51.113Z,100.00
2019-02-23T03:30:20.610Z,100.00
2019-02-23T03:32:50.120Z,100.00
2019-02-23T03:35:19.608Z,100.00
2019-02-23T03:37:49.126Z,100.00
2019-02-23T03:40:38.044Z,100.00
2019-02-23T03:43:07.577Z,100.00
2019-02-23T03:45:37.068Z,100.00
2019-02-23T03:48:06.584Z,100.00
2019-02-23T03:50:48.411Z,100.00
2019-02-23T03:56:28.746Z,100.00
2019-02-23T03:58:58.524Z,100.00
2019-02-23T04:01:28.019Z,100.00
2019-02-23T04:03:58.387Z,100.00
2019-02-23T04:06:27.929Z,100.00
2019-02-23T04:08:57.418Z,100.00
2019-02-23T04:11:26.923Z,100.00
2019-02-23T04:13:56.439Z,100.00
2019-02-23T04:16:26.736Z,100.00
2019-02-23T04:18:56.259Z,100.00
2019-02-23T04:21:25.760Z,100.00
2019-02-23T04:23:55.501Z,100.00
2019-02-23T04:26:25.167Z,100.00
2019-02-23T04:28:54.874Z,100.00
2019-02-23T04:31:24.361Z,100.00
2019-02-23T04:33:53.877Z,100.00
2019-02-23T04:36:23.363Z,100.00
2019-02-23T04:38:52.870Z,100.00
2019-02-23T04:41:23.104Z,100.00
2019-02-23T04:43:52.645Z,100.00
2019-02-23T04:46:22.134Z,100.00
2019-02-23T04:48:51.708Z,100.00
2019-02-23T04:51:40.494Z,100.00
2019-02-23T04:54:10.011Z,100.00
2019-02-23T04:56:39.505Z,100.00
2019-02-23T04:59:09.021Z,100.00
2019-02-23T05:01:39.397Z,100.00
2019-02-23T05:04:28.243Z,100.00
2019-02-23T05:06:57.739Z,100.00
2019-02-23T05:09:27.263Z,100.00
2019-02-23T05:11:56.764Z,100.00
2019-02-23T05:14:26.291Z,100.00
2019-02-23T05:16:55.801Z,100.00
2019-02-23T05:19:25.317Z,100.00
2019-02-23T05:22:14.189Z,100.00
2019-02-23T05:24:43.682Z,100.00
2019-02-23T05:27:14.456Z,100.00
2019-02-23T05:29:43.996Z,100.00
2019-02-23T05:32:13.488Z,100.00
2019-02-23T05:34:43.000Z,100.00
2019-02-23T05:37:12.521Z,100.00
2019-02-23T05:39:43.281Z,100.00
2019-02-23T05:42:12.775Z,100.00
2019-02-23T05:44:42.308Z,100.00
2019-02-23T05:47:24.615Z,100.00
2019-02-23T05:49:54.159Z,100.00
2019-02-23T05:52:23.649Z,100.00
2019-02-23T05:55:31.523Z,100.00
2019-02-23T05:58:01.048Z,100.00
2019-02-23T06:00:30.557Z,100.00
2019-02-23T06:03:00.051Z,100.00
2019-02-23T06:05:29.571Z,100.00
2019-02-23T06:07:59.100Z,100.00
2019-02-23T06:10:28.673Z,100.00
2019-02-23T06:13:18.367Z,100.00
2019-02-23T06:15:47.897Z,100.00
2019-02-23T06:18:37.568Z,100.00
2019-02-23T06:21:26.410Z,100.00
2019-02-23T06:24:08.895Z,100.00
2019-02-23T06:26:38.441Z,100.00
2019-02-23T06:29:07.951Z,100.00
2019-02-23T06:31:37.466Z,100.00
2019-02-23T06:34:26.318Z,100.00
2019-02-23T06:37:09.013Z,100.00
2019-02-23T06:39:39.597Z,100.00
2019-02-23T06:42:09.099Z,100.00
2019-02-23T06:45:16.973Z,100.00
2019-02-23T06:47:46.473Z,100.00
2019-02-23T06:50:35.357Z,100.00
2019-02-23T06:53:18.151Z,100.00
2019-02-23T06:55:47.945Z,100.00
2019-02-23T06:58:36.802Z,100.00
2019-02-23T07:01:25.667Z,100.00
2019-02-23T07:03:55.181Z,100.00
2019-02-23T07:06:44.047Z,100.00
2019-02-23T07:09:13.549Z,89.56
2019-02-23T07:12:02.375Z,75.88
2019-02-23T07:14:32.552Z,65.18
2019-02-23T07:17:02.040Z,60.99
2019-02-23T07:19:31.575Z,60.82
2019-02-23T07:22:01.055Z,60.28
2019-02-23T07:24:30.562Z,76.04
2019-02-23T07:27:00.175Z,100.00
2019-02-23T07:29:29.679Z,100.00
2019-02-23T07:31:59.173Z,100.00
2019-02-23T07:34:48.024Z,100.00
2019-02-23T07:37:17.515Z,100.00
2019-02-23T07:40:27.249Z,100.00
2019-02-23T07:42:56.736Z,100.00
2019-02-23T07:45:26.253Z,100.00
2019-02-23T07:48:34.121Z,100.00
2019-02-23T07:51:03.612Z,100.00
2019-02-23T07:53:33.153Z,100.00
2019-02-23T07:56:02.661Z,100.00
2019-02-23T07:58:51.496Z,100.00
2019-02-23T08:01:40.335Z,71.35
2019-02-23T08:04:09.862Z,61.98
2019-02-23T08:06:39.367Z,55.66
2019-02-23T08:09:09.663Z,59.83
2019-02-23T08:11:39.162Z,55.96
2019-02-23T08:14:08.668Z,44.15
2019-02-23T08:16:38.166Z,45.08
2019-02-23T08:19:07.686Z,36.83
2019-02-23T08:21:37.219Z,40.85
2019-02-23T08:24:06.701Z,44.76
2019-02-23T08:26:36.237Z,41.68
2019-02-23T08:29:05.739Z,40.74
2019-02-23T08:31:35.246Z,41.60
2019-02-23T08:34:24.075Z,34.43
2019-02-23T08:36:53.583Z,39.35
2019-02-23T08:39:42.456Z,46.24
2019-02-23T08:42:11.955Z,40.88
2019-02-23T08:44:41.525Z,46.50
2019-02-23T08:47:11.051Z,37.93
2019-02-23T08:49:40.540Z,42.06
2019-02-23T08:52:10.980Z,37.05
2019-02-23T08:54:40.468Z,34.66
2019-02-23T08:57:09.999Z,29.59
2019-02-23T08:59:39.477Z,38.35
2019-02-23T09:02:09.032Z,41.19
2019-02-23T09:04:38.527Z,50.52
2019-02-23T09:07:08.031Z,40.47
2019-02-23T09:09:37.515Z,41.40
2019-02-23T09:12:07.660Z,42.18
2019-02-23T09:14:37.167Z,50.72
2019-02-23T09:17:07.377Z,48.97
2019-02-23T09:19:36.885Z,46.31
2019-02-23T09:22:06.566Z,46.92
2019-02-23T09:24:36.137Z,37.61
2019-02-23T09:27:05.647Z,35.60
2019-02-23T09:29:35.525Z,42.01
2019-02-23T09:32:05.021Z,56.97
2019-02-23T09:34:34.524Z,46.70
2019-02-23T09:37:04.030Z,39.97
2019-02-23T09:39:33.516Z,39.13
2019-02-23T09:42:07.562Z,46.70
2019-02-23T09:44:35.066Z,44.10
2019-02-23T09:47:23.930Z,49.40
2019-02-23T09:50:06.165Z,57.48
2019-02-23T09:52:35.720Z,51.37
2019-02-23T09:55:36.860Z,53.96
2019-02-23T09:57:56.150Z,53.51
2019-02-23T10:00:25.635Z,61.00
2019-02-23T10:02:55.458Z,71.31
2019-02-23T10:05:24.937Z,76.69
2019-02-23T10:07:54.446Z,68.56
2019-02-23T10:10:23.931Z,65.59
2019-02-23T10:12:53.512Z,74.73
2019-02-23T10:15:23.716Z,80.43
2019-02-23T10:18:12.553Z,72.09
2019-02-23T10:20:42.032Z,76.72
2019-02-23T10:23:21.529Z,71.26
2019-02-23T10:25:42.769Z,75.38
2019-02-23T10:28:12.274Z,78.63
2019-02-23T10:30:41.749Z,64.68
2019-02-23T10:33:11.241Z,78.65
2019-02-23T10:35:41.638Z,66.23
2019-02-23T10:38:11.144Z,76.65
2019-02-23T10:40:40.631Z,66.24
2019-02-23T10:43:10.236Z,71.85
2019-02-23T10:45:39.757Z,57.27
2019-02-23T10:48:09.834Z,61.00
2019-02-23T10:50:39.382Z,60.98
2019-02-23T10:53:08.885Z,68.05
2019-02-23T10:55:38.372Z,65.15
2019-02-23T10:58:07.899Z,57.07
2019-02-23T11:00:38.188Z,41.75
2019-02-23T11:03:07.693Z,44.93
2019-02-23T11:05:37.172Z,43.08
2019-02-23T11:08:06.755Z,42.73
2019-02-23T11:10:36.237Z,37.38
2019-02-23T11:13:06.097Z,36.36
2019-02-23T11:15:35.649Z,34.56
2019-02-23T11:18:05.288Z,38.95
2019-02-23T11:20:34.848Z,35.37
2019-02-23T11:23:43.732Z,39.77
2019-02-23T11:26:27.206Z,38.35
2019-02-23T11:29:09.974Z,34.82
2019-02-23T11:31:39.529Z,32.65
2019-02-23T11:34:09.066Z,27.94
2019-02-23T11:36:38.556Z,28.36
2019-02-23T11:39:08.154Z,31.26
2019-02-23T11:41:37.636Z,27.83
2019-02-23T11:44:07.136Z,24.35
2019-02-23T11:46:36.653Z,23.96
2019-02-23T11:49:08.243Z,23.23
2019-02-23T11:51:37.439Z,23.29
2019-02-23T11:54:06.956Z,24.04
2019-02-23T11:56:36.458Z,29.04
2019-02-23T11:59:19.018Z,26.70
2019-02-23T12:01:48.574Z,27.30
2019-02-23T12:04:18.086Z,27.93
2019-02-23T12:06:47.570Z,25.16
2019-02-23T12:09:17.133Z,24.20
2019-02-23T12:12:05.993Z,25.40
2019-02-23T12:14:54.840Z,23.36
2019-02-23T12:17:24.444Z,24.22
2019-02-23T12:19:55.398Z,24.98
2019-02-23T12:22:24.989Z,25.80
2019-02-23T12:24:54.476Z,23.45
2019-02-23T12:27:23.994Z,24.64
2019-02-23T12:29:53.486Z,21.27
2019-02-23T12:32:23.001Z,22.30
2019-02-23T12:35:23.726Z,23.20
2019-02-23T12:38:12.623Z,25.42
2019-02-23T12:40:42.130Z,23.97
2019-02-23T12:46:12.448Z,24.71
2019-02-23T12:48:41.956Z,29.41
2019-02-23T12:51:11.480Z,25.49
2019-02-23T12:53:41.015Z,27.88
2019-02-23T12:56:10.528Z,23.53
2019-02-23T12:58:40.058Z,31.98
2019-02-23T13:01:09.577Z,27.96
2019-02-23T13:03:39.094Z,24.60
2019-02-23T13:06:08.585Z,25.69
2019-02-23T13:09:15.937Z,26.53
2019-02-23T13:11:52.968Z,26.40
2019-02-23T13:14:56.707Z,24.92
2019-02-23T13:18:05.302Z,23.03
2019-02-23T13:21:09.463Z,32.64
2019-02-23T13:24:09.230Z,30.15
2019-02-23T13:27:15.967Z,28.63
2019-02-23T13:30:04.150Z,30.51
2019-02-23T13:33:00.238Z,31.38
2019-02-23T13:36:07.249Z,36.72
2019-02-23T13:39:18.997Z,35.55
2019-02-23T13:42:05.715Z,34.76
2019-02-23T13:45:12.659Z,36.49
2019-02-23T13:47:46.817Z,36.00
2019-02-23T13:50:35.658Z,27.13
2019-02-23T13:53:12.858Z,33.45
2019-02-23T13:55:53.013Z,31.93
2019-02-23T13:58:29.729Z,35.19
2019-02-23T14:01:19.925Z,35.62
2019-02-23T14:04:10.605Z,34.05
2019-02-23T14:06:59.510Z,31.26
2019-02-23T14:09:39.615Z,33.78
2019-02-23T14:12:35.827Z,32.99
2019-02-23T14:15:32.205Z,34.12
2019-02-23T14:18:24.142Z,35.88
2019-02-23T14:21:19.056Z,37.57
2019-02-23T14:24:11.216Z,36.44
2019-02-23T14:27:08.353Z,31.84
2019-02-23T14:30:35.907Z,29.60
2019-02-23T14:33:24.785Z,32.46
2019-02-23T14:36:22.165Z,31.32
2019-02-23T14:38:58.889Z,32.95
2019-02-23T14:42:08.629Z,32.12
2019-02-23T14:44:48.356Z,31.53
2019-02-23T14:47:30.851Z,32.92
2019-02-23T14:50:36.654Z,31.21
2019-02-23T14:53:25.883Z,34.38
2019-02-23T14:56:23.382Z,32.23
2019-02-23T14:59:15.512Z,35.57
2019-02-23T15:01:55.214Z,36.40
2019-02-23T15:04:32.073Z,34.30
2019-02-23T15:07:23.237Z,35.82
2019-02-23T15:10:02.967Z,38.28
2019-02-23T15:12:45.593Z,38.67
2019-02-23T15:16:17.240Z,40.82
2019-02-23T15:19:42.366Z,41.99
2019-02-23T15:22:23.259Z,43.78
2019-02-23T15:25:31.939Z,45.39
2019-02-23T15:28:26.757Z,48.70
2019-02-23T15:31:26.192Z,50.84
2019-02-23T15:34:25.547Z,52.34
2019-02-23T15:37:05.423Z,53.50
2019-02-23T15:39:54.091Z,53.59
2019-02-23T15:42:41.280Z,51.67
2019-02-23T15:45:52.537Z,52.27
2019-02-23T15:48:51.865Z,51.91
2019-02-23T15:51:21.508Z,54.96
2019-02-23T15:53:51.057Z,56.56
2019-02-23T15:56:20.571Z,53.52
2019-02-23T15:59:09.394Z,56.58
2019-02-23T16:01:38.926Z,56.80
2019-02-23T16:04:09.030Z,52.80
2019-02-23T16:06:38.523Z,53.89
2019-02-23T16:09:08.082Z,50.94
2019-02-23T16:11:37.605Z,56.44
2019-02-23T16:14:07.126Z,55.00
2019-02-23T16:17:15.069Z,56.43
2019-02-23T16:19:44.620Z,57.79
2019-02-23T16:22:14.346Z,55.08
2019-02-23T16:24:43.848Z,55.90
2019-02-23T16:27:13.449Z,53.86
2019-02-23T16:29:42.950Z,56.44
2019-02-23T16:32:12.457Z,51.13
2019-02-23T16:34:41.937Z,50.53
2019-02-23T16:37:11.449Z,55.11
2019-02-23T16:39:40.931Z,52.98
2019-02-23T16:42:10.444Z,56.48
2019-02-23T16:44:39.927Z,53.68
2019-02-23T16:47:09.451Z,56.90
2019-02-23T16:49:38.917Z,54.56
2019-02-23T16:52:09.353Z,59.26
2019-02-23T16:54:39.500Z,61.15
2019-02-23T16:57:09.009Z,61.63
2019-02-23T16:59:38.495Z,62.41
2019-02-23T17:02:08.033Z,64.79
2019-02-23T17:04:37.542Z,69.52
2019-02-23T17:07:07.609Z,69.54
2019-02-23T17:09:37.109Z,73.82
2019-02-23T17:12:45.014Z,73.85
2019-02-23T17:15:33.829Z,76.25
2019-02-23T17:18:16.353Z,76.45
2019-02-23T17:20:45.832Z,79.56
2019-02-23T17:23:15.344Z,77.30
2019-02-23T17:25:44.854Z,81.66
2019-02-23T17:28:14.371Z,82.95
2019-02-23T17:30:43.872Z,83.66
2019-02-23T17:33:13.375Z,79.82
2019-02-23T17:36:02.310Z,81.34
2019-02-23T17:38:44.858Z,84.20
2019-02-23T17:41:14.433Z,84.85
2019-02-23T17:44:03.300Z,84.85
2019-02-23T17:46:52.123Z,82.50
2019-02-23T17:49:21.649Z,87.32
2019-02-23T17:51:51.134Z,85.36
2019-02-23T17:54:20.675Z,87.56
2019-02-23T17:56:50.154Z,89.58
2019-02-23T17:59:19.687Z,84.79
2019-02-23T18:01:49.201Z,84.00
2019-02-23T18:04:19.368Z,85.44
2019-02-23T18:06:48.841Z,83.24
2019-02-23T18:09:37.684Z,86.04
2019-02-23T18:12:07.195Z,89.37
2019-02-23T18:14:36.709Z,88.26
2019-02-23T18:17:06.233Z,90.10
2019-02-23T18:19:35.747Z,90.22
2019-02-23T18:22:05.328Z,86.95
2019-02-23T18:24:34.835Z,87.31
2019-02-23T18:27:04.320Z,88.03
2019-02-23T18:29:33.846Z,90.57
2019-02-23T18:32:03.364Z,91.49
2019-02-23T18:34:32.872Z,92.86
2019-02-23T18:37:02.367Z,96.44
2019-02-23T18:39:31.889Z,97.40
2019-02-23T18:42:20.741Z,98.20
2019-02-23T18:45:03.343Z,97.51
2019-02-23T18:47:32.827Z,97.26
2019-02-23T18:50:02.342Z,99.80
2019-02-23T18:52:31.838Z,99.12
2019-02-23T18:55:01.379Z,99.08
2019-02-23T18:57:30.888Z,99.92
2019-02-23T19:00:00.409Z,94.92
2019-02-23T19:02:30.526Z,91.74
2019-02-23T19:05:00.052Z,90.16
2019-02-23T19:07:29.551Z,91.77
2019-02-23T19:09:59.063Z,96.00
2019-02-23T19:12:28.550Z,96.59
2019-02-23T19:14:59.616Z,95.51
2019-02-23T19:17:42.341Z,97.53
2019-02-23T19:20:31.221Z,97.12
2019-02-23T19:23:13.384Z,100.00
2019-02-23T19:26:02.259Z,100.00
2019-02-23T19:28:31.789Z,100.00
2019-02-23T19:31:01.277Z,96.75
2019-02-23T19:33:30.797Z,97.99
2019-02-23T19:36:00.296Z,100.00
2019-02-23T19:38:29.819Z,100.00
2019-02-23T19:40:59.340Z,100.00
2019-02-23T19:43:28.892Z,100.00
2019-02-23T19:45:58.421Z,100.00
2019-02-23T19:48:27.953Z,100.00
2019-02-23T19:51:02.712Z,100.00
2019-02-23T19:53:32.247Z,100.00
2019-02-23T19:56:01.748Z,100.00
2019-02-23T19:58:31.338Z,100.00
2019-02-23T20:01:00.916Z,100.00
2019-02-23T20:03:30.434Z,100.00
2019-02-23T20:06:19.593Z,100.00
2019-02-23T20:09:08.448Z,100.00
2019-02-23T20:11:37.976Z,100.00
2019-02-23T20:14:07.499Z,100.00
2019-02-23T20:16:36.993Z,100.00
2019-02-23T20:19:06.516Z,100.00
2019-02-23T20:21:36.075Z,100.00
2019-02-23T20:24:05.604Z,100.00
2019-02-23T20:26:35.105Z,100.00
2019-02-23T20:29:04.630Z,100.00
2019-02-23T20:31:34.131Z,100.00
2019-02-23T20:34:23.028Z,100.00
2019-02-23T20:37:11.867Z,100.00
2019-02-23T20:39:41.908Z,100.00
2019-02-23T20:42:11.397Z,100.00
2019-02-23T20:44:41.277Z,100.00
2019-02-23T20:47:10.844Z,100.00
2019-02-23T20:49:40.380Z,100.00
2019-02-23T20:52:29.731Z,100.00
2019-02-23T20:55:12.156Z,100.00
2019-02-23T20:57:41.659Z,100.00
2019-02-23T21:00:14.257Z,100.00
2019-02-23T21:02:43.853Z,100.00
2019-02-23T21:05:14.697Z,100.00
2019-02-23T21:07:44.822Z,100.00
2019-02-23T21:10:14.486Z,100.00
2019-02-23T21:12:43.967Z,100.00
2019-02-23T21:15:13.619Z,100.00
2019-02-23T21:17:43.123Z,100.00
2019-02-23T21:20:13.089Z,100.00
2019-02-23T21:22:42.584Z,100.00
2019-02-23T21:25:12.175Z,100.00
2019-02-23T21:27:41.669Z,100.00
2019-02-23T21:30:12.144Z,100.00
2019-02-23T21:32:41.634Z,100.00
2019-02-23T21:35:11.159Z,100.00
2019-02-23T21:38:00.017Z,100.00
2019-02-23T21:40:29.554Z,100.00
2019-02-23T21:42:59.112Z,100.00
2019-02-23T21:45:28.660Z,100.00
2019-02-23T21:47:58.154Z,100.00
2019-02-23T21:50:27.688Z,100.00
2019-02-23T21:52:57.182Z,100.00
2019-02-23T21:55:46.051Z,100.00
2019-02-23T21:58:15.587Z,100.00
2019-02-23T22:01:04.432Z,100.00
2019-02-23T22:03:44.873Z,100.00
2019-02-23T22:06:14.612Z,100.00
2019-02-23T22:08:44.103Z,100.00
2019-02-23T22:11:13.647Z,100.00
2019-02-23T22:13:43.141Z,100.00
2019-02-23T22:16:12.644Z,100.00
2019-02-23T22:18:42.156Z,100.00
2019-02-23T22:21:11.675Z,100.00
2019-02-23T22:23:41.175Z,100.00
2019-02-23T22:26:10.713Z,100.00
2019-02-23T22:28:59.547Z,100.00
2019-02-23T22:31:29.068Z,100.00
2019-02-23T22:33:58.723Z,100.00
2019-02-23T22:36:28.285Z,100.00
2019-02-23T22:38:57.779Z,100.00
2019-02-23T22:41:27.321Z,100.00
2019-02-23T22:43:56.810Z,100.00
2019-02-23T22:46:26.325Z,100.00
2019-02-23T22:48:55.830Z,100.00
2019-02-23T22:51:44.775Z,100.00
2019-02-23T22:54:14.269Z,100.00
2019-02-23T22:56:43.770Z,100.00
2019-02-23T22:59:13.315Z,100.00
2019-02-23T23:01:42.855Z,100.00
2019-02-23T23:04:12.347Z,100.00
2019-02-23T23:06:41.885Z,100.00
2019-02-23T23:09:13.017Z,100.00
2019-02-23T23:12:01.872Z,100.00
2019-02-23T23:14:44.460Z,100.00
2019-02-23T23:17:14.005Z,100.00
2019-02-23T23:19:43.497Z,100.00
2019-02-23T23:22:13.013Z,100.00
2019-02-23T23:24:42.502Z,100.00
2019-02-23T23:27:12.058Z,100.00
2019-02-23T23:29:41.540Z,100.00
2019-02-23T23:32:11.058Z,100.00
2019-02-23T23:34:40.554Z,100.00
2019-02-23T23:37:10.098Z,100.00
2019-02-23T23:39:39.593Z,100.00
2019-02-23T23:42:10.347Z,100.00
2019-02-23T23:44:39.848Z,100.00
2019-02-23T23:47:09.365Z,100.00
2019-02-23T23:49:38.854Z,100.00
2019-02-23T23:52:08.565Z,100.00
2019-02-23T23:54:38.948Z,100.00
2019-02-23T23:57:08.499Z,100.00
2019-02-23T23:59:57.376Z,100.00
